sensor_id;sensor_type;location;lat;lon;timestamp;temperature;humidity
12130;DHT22;6128;59.340;18.040;2023-04-07T00:01:53;2.20;99.90
12130;DHT22;6128;59.340;18.040;2023-04-07T00:04:20;2.10;99.90
12130;DHT22;6128;59.340;18.040;2023-04-07T00:06:49;2.10;99.90
12130;DHT22;6128;59.340;18.040;2023-04-07T00:09:16;2.10;99.90
12130;DHT22;6128;59.340;18.040;2023-04-07T00:11:43;2.20;99.90
12130;DHT22;6128;59.340;18.040;2023-04-07T00:14:10;2.20;99.90
12130;DHT22;6128;59.340;18.040;2023-04-07T00:16:37;2.20;99.90
12130;DHT22;6128;59.340;18.040;2023-04-07T00:19:04;2.10;99.90
12130;DHT22;6128;59.340;18.040;2023-04-07T00:21:31;2.10;99.90
12130;DHT22;6128;59.340;18.040;2023-04-07T00:24:00;2.00;99.90
12130;DHT22;6128;59.340;18.040;2023-04-07T00:26:27;2.10;99.90
12130;DHT22;6128;59.340;18.040;2023-04-07T00:28:57;2.10;99.90
12130;DHT22;6128;59.340;18.040;2023-04-07T00:31:24;2.20;99.90
12130;DHT22;6128;59.340;18.040;2023-04-07T00:33:51;2.10;99.90
12130;DHT22;6128;59.340;18.040;2023-04-07T00:36:19;2.20;99.90
12130;DHT22;6128;59.340;18.040;2023-04-07T00:38:46;2.10;99.90
12130;DHT22;6128;59.340;18.040;2023-04-07T00:41:14;2.10;99.90
12130;DHT22;6128;59.340;18.040;2023-04-07T00:43:41;2.20;99.90
12130;DHT22;6128;59.340;18.040;2023-04-07T00:46:08;2.10;99.90
12130;DHT22;6128;59.340;18.040;2023-04-07T00:48:36;2.10;99.90
12130;DHT22;6128;59.340;18.040;2023-04-07T00:51:04;2.10;99.90
12130;DHT22;6128;59.340;18.040;2023-04-07T00:53:32;2.10;99.90
12130;DHT22;6128;59.340;18.040;2023-04-07T00:56:00;2.10;99.90
12130;DHT22;6128;59.340;18.040;2023-04-07T00:58:28;2.20;99.90
12130;DHT22;6128;59.340;18.040;2023-04-07T01:01:02;2.20;99.90
12130;DHT22;6128;59.340;18.040;2023-04-07T01:03:35;2.20;99.90
12130;DHT22;6128;59.340;18.040;2023-04-07T01:06:07;2.20;99.90
12130;DHT22;6128;59.340;18.040;2023-04-07T01:08:41;2.20;99.90
12130;DHT22;6128;59.340;18.040;2023-04-07T01:11:22;2.10;99.90
12130;DHT22;6128;59.340;18.040;2023-04-07T01:13:52;2.10;99.90
12130;DHT22;6128;59.340;18.040;2023-04-07T01:16:23;2.10;99.90
12130;DHT22;6128;59.340;18.040;2023-04-07T01:18:54;2.10;99.90
12130;DHT22;6128;59.340;18.040;2023-04-07T01:21:26;2.00;99.90
12130;DHT22;6128;59.340;18.040;2023-04-07T01:24:11;2.00;99.90
12130;DHT22;6128;59.340;18.040;2023-04-07T01:26:45;2.10;99.90
12130;DHT22;6128;59.340;18.040;2023-04-07T01:29:29;2.10;99.90
12130;DHT22;6128;59.340;18.040;2023-04-07T01:32:01;2.10;99.90
12130;DHT22;6128;59.340;18.040;2023-04-07T01:34:31;2.10;99.90
12130;DHT22;6128;59.340;18.040;2023-04-07T01:37:00;2.10;99.90
12130;DHT22;6128;59.340;18.040;2023-04-07T01:39:28;2.20;99.90
12130;DHT22;6128;59.340;18.040;2023-04-07T01:41:56;2.10;99.90
12130;DHT22;6128;59.340;18.040;2023-04-07T01:44:28;2.20;99.90
12130;DHT22;6128;59.340;18.040;2023-04-07T01:46:56;2.10;99.90
12130;DHT22;6128;59.340;18.040;2023-04-07T01:49:24;2.10;99.90
12130;DHT22;6128;59.340;18.040;2023-04-07T01:51:52;2.10;99.90
12130;DHT22;6128;59.340;18.040;2023-04-07T01:54:21;2.10;99.90
12130;DHT22;6128;59.340;18.040;2023-04-07T01:56:48;2.10;99.90
12130;DHT22;6128;59.340;18.040;2023-04-07T01:59:16;2.20;99.90
12130;DHT22;6128;59.340;18.040;2023-04-07T02:01:44;2.20;99.90
12130;DHT22;6128;59.340;18.040;2023-04-07T02:04:15;2.20;99.90
12130;DHT22;6128;59.340;18.040;2023-04-07T02:06:49;2.10;99.90
12130;DHT22;6128;59.340;18.040;2023-04-07T02:09:20;2.10;99.90
12130;DHT22;6128;59.340;18.040;2023-04-07T02:11:49;2.20;99.90
12130;DHT22;6128;59.340;18.040;2023-04-07T02:14:18;2.10;99.90
12130;DHT22;6128;59.340;18.040;2023-04-07T02:16:50;2.00;99.90
12130;DHT22;6128;59.340;18.040;2023-04-07T02:19:19;2.10;99.90
12130;DHT22;6128;59.340;18.040;2023-04-07T02:21:48;2.10;99.90
12130;DHT22;6128;59.340;18.040;2023-04-07T02:24:19;2.10;99.90
12130;DHT22;6128;59.340;18.040;2023-04-07T02:26:47;2.00;99.90
12130;DHT22;6128;59.340;18.040;2023-04-07T02:29:14;1.90;99.90
12130;DHT22;6128;59.340;18.040;2023-04-07T02:31:42;1.80;99.90
12130;DHT22;6128;59.340;18.040;2023-04-07T02:34:10;1.90;99.90
12130;DHT22;6128;59.340;18.040;2023-04-07T02:36:38;1.90;99.90
12130;DHT22;6128;59.340;18.040;2023-04-07T02:39:05;1.90;99.90
12130;DHT22;6128;59.340;18.040;2023-04-07T02:41:32;1.80;99.90
12130;DHT22;6128;59.340;18.040;2023-04-07T02:43:59;1.80;99.90
12130;DHT22;6128;59.340;18.040;2023-04-07T02:46:26;1.80;99.90
12130;DHT22;6128;59.340;18.040;2023-04-07T02:48:55;1.80;99.90
12130;DHT22;6128;59.340;18.040;2023-04-07T02:51:24;1.90;99.90
12130;DHT22;6128;59.340;18.040;2023-04-07T02:53:51;1.90;99.90
12130;DHT22;6128;59.340;18.040;2023-04-07T02:56:18;2.00;99.90
12130;DHT22;6128;59.340;18.040;2023-04-07T02:58:46;2.00;99.90
12130;DHT22;6128;59.340;18.040;2023-04-07T03:01:13;2.00;99.90
12130;DHT22;6128;59.340;18.040;2023-04-07T03:03:40;2.00;99.90
12130;DHT22;6128;59.340;18.040;2023-04-07T03:06:09;2.00;99.90
12130;DHT22;6128;59.340;18.040;2023-04-07T03:08:38;2.00;99.90
12130;DHT22;6128;59.340;18.040;2023-04-07T03:11:05;2.00;99.90
12130;DHT22;6128;59.340;18.040;2023-04-07T03:13:32;2.00;99.90
12130;DHT22;6128;59.340;18.040;2023-04-07T03:18:52;2.00;99.90
12130;DHT22;6128;59.340;18.040;2023-04-07T03:19:18;2.00;99.90
12130;DHT22;6128;59.340;18.040;2023-04-07T03:21:45;2.00;99.90
12130;DHT22;6128;59.340;18.040;2023-04-07T03:24:14;2.10;99.90
12130;DHT22;6128;59.340;18.040;2023-04-07T03:26:41;2.10;99.90
12130;DHT22;6128;59.340;18.040;2023-04-07T03:29:08;2.10;99.90
12130;DHT22;6128;59.340;18.040;2023-04-07T03:31:35;2.00;99.90
12130;DHT22;6128;59.340;18.040;2023-04-07T03:34:03;2.00;99.90
12130;DHT22;6128;59.340;18.040;2023-04-07T03:36:30;2.10;99.90
12130;DHT22;6128;59.340;18.040;2023-04-07T03:38:57;2.00;99.90
12130;DHT22;6128;59.340;18.040;2023-04-07T03:41:26;2.00;99.90
12130;DHT22;6128;59.340;18.040;2023-04-07T03:43:53;2.00;99.90
12130;DHT22;6128;59.340;18.040;2023-04-07T03:46:21;2.00;99.90
12130;DHT22;6128;59.340;18.040;2023-04-07T03:48:48;2.00;99.90
12130;DHT22;6128;59.340;18.040;2023-04-07T03:51:15;1.90;99.90
12130;DHT22;6128;59.340;18.040;2023-04-07T03:53:43;2.00;99.90
12130;DHT22;6128;59.340;18.040;2023-04-07T03:56:10;2.00;99.90
12130;DHT22;6128;59.340;18.040;2023-04-07T03:58:39;2.00;99.90
12130;DHT22;6128;59.340;18.040;2023-04-07T04:01:07;2.00;99.90
12130;DHT22;6128;59.340;18.040;2023-04-07T04:03:34;2.00;99.90
12130;DHT22;6128;59.340;18.040;2023-04-07T04:06:01;2.00;99.90
12130;DHT22;6128;59.340;18.040;2023-04-07T04:08:29;2.00;99.90
12130;DHT22;6128;59.340;18.040;2023-04-07T04:10:56;1.90;99.90
12130;DHT22;6128;59.340;18.040;2023-04-07T04:13:23;1.90;99.90
12130;DHT22;6128;59.340;18.040;2023-04-07T04:15:52;1.80;99.90
12130;DHT22;6128;59.340;18.040;2023-04-07T04:18:22;1.80;99.90
12130;DHT22;6128;59.340;18.040;2023-04-07T04:20:49;1.80;99.90
12130;DHT22;6128;59.340;18.040;2023-04-07T04:23:16;1.90;99.90
12130;DHT22;6128;59.340;18.040;2023-04-07T04:25:44;1.90;99.90
12130;DHT22;6128;59.340;18.040;2023-04-07T04:28:11;2.00;99.90
12130;DHT22;6128;59.340;18.040;2023-04-07T04:30:38;1.90;99.90
12130;DHT22;6128;59.340;18.040;2023-04-07T04:33:06;1.80;99.90
12130;DHT22;6128;59.340;18.040;2023-04-07T04:35:34;1.80;99.90
12130;DHT22;6128;59.340;18.040;2023-04-07T04:38:01;1.80;99.90
12130;DHT22;6128;59.340;18.040;2023-04-07T04:40:28;1.80;99.90
12130;DHT22;6128;59.340;18.040;2023-04-07T04:42:55;1.80;99.90
12130;DHT22;6128;59.340;18.040;2023-04-07T04:45:22;1.80;99.90
12130;DHT22;6128;59.340;18.040;2023-04-07T04:47:49;1.70;99.90
12130;DHT22;6128;59.340;18.040;2023-04-07T04:50:18;1.70;99.90
12130;DHT22;6128;59.340;18.040;2023-04-07T04:52:45;1.70;99.90
12130;DHT22;6128;59.340;18.040;2023-04-07T04:55:12;1.70;99.90
12130;DHT22;6128;59.340;18.040;2023-04-07T04:57:39;1.70;99.90
12130;DHT22;6128;59.340;18.040;2023-04-07T05:00:07;1.80;99.90
12130;DHT22;6128;59.340;18.040;2023-04-07T05:02:35;1.70;99.90
12130;DHT22;6128;59.340;18.040;2023-04-07T05:05:03;1.80;99.90
12130;DHT22;6128;59.340;18.040;2023-04-07T05:07:31;1.90;99.90
12130;DHT22;6128;59.340;18.040;2023-04-07T05:09:59;1.90;99.90
12130;DHT22;6128;59.340;18.040;2023-04-07T05:12:26;1.90;99.90
12130;DHT22;6128;59.340;18.040;2023-04-07T05:14:53;2.00;99.90
12130;DHT22;6128;59.340;18.040;2023-04-07T05:17:21;1.90;99.90
12130;DHT22;6128;59.340;18.040;2023-04-07T05:19:48;1.90;99.90
12130;DHT22;6128;59.340;18.040;2023-04-07T05:22:15;2.00;99.90
12130;DHT22;6128;59.340;18.040;2023-04-07T05:24:43;2.00;99.90
12130;DHT22;6128;59.340;18.040;2023-04-07T05:27:11;2.10;99.90
12130;DHT22;6128;59.340;18.040;2023-04-07T05:29:38;2.10;99.90
12130;DHT22;6128;59.340;18.040;2023-04-07T05:32:05;2.00;99.90
12130;DHT22;6128;59.340;18.040;2023-04-07T05:34:32;2.00;99.90
12130;DHT22;6128;59.340;18.040;2023-04-07T05:36:59;2.10;99.90
12130;DHT22;6128;59.340;18.040;2023-04-07T05:39:26;2.10;99.90
12130;DHT22;6128;59.340;18.040;2023-04-07T05:41:55;2.10;99.90
12130;DHT22;6128;59.340;18.040;2023-04-07T05:44:22;2.10;99.90
12130;DHT22;6128;59.340;18.040;2023-04-07T05:46:50;2.20;99.90
12130;DHT22;6128;59.340;18.040;2023-04-07T05:49:16;2.20;99.90
12130;DHT22;6128;59.340;18.040;2023-04-07T05:51:44;2.20;99.90
12130;DHT22;6128;59.340;18.040;2023-04-07T05:54:11;2.20;99.90
12130;DHT22;6128;59.340;18.040;2023-04-07T05:56:39;2.30;99.90
12130;DHT22;6128;59.340;18.040;2023-04-07T05:59:07;2.30;99.90
12130;DHT22;6128;59.340;18.040;2023-04-07T06:01:34;2.30;99.90
12130;DHT22;6128;59.340;18.040;2023-04-07T06:04:01;2.20;99.90
12130;DHT22;6128;59.340;18.040;2023-04-07T06:06:30;2.30;99.90
12130;DHT22;6128;59.340;18.040;2023-04-07T06:08:58;2.30;99.90
12130;DHT22;6128;59.340;18.040;2023-04-07T06:11:25;2.30;99.90
12130;DHT22;6128;59.340;18.040;2023-04-07T06:13:53;2.30;99.90
12130;DHT22;6128;59.340;18.040;2023-04-07T06:16:21;2.30;99.90
12130;DHT22;6128;59.340;18.040;2023-04-07T06:18:49;2.30;99.90
12130;DHT22;6128;59.340;18.040;2023-04-07T06:21:16;2.30;99.90
12130;DHT22;6128;59.340;18.040;2023-04-07T06:23:43;2.40;99.90
12130;DHT22;6128;59.340;18.040;2023-04-07T06:26:11;2.40;99.90
12130;DHT22;6128;59.340;18.040;2023-04-07T06:28:38;2.40;99.90
12130;DHT22;6128;59.340;18.040;2023-04-07T06:31:06;2.40;99.90
12130;DHT22;6128;59.340;18.040;2023-04-07T06:33:35;2.40;99.90
12130;DHT22;6128;59.340;18.040;2023-04-07T06:36:03;2.40;99.90
12130;DHT22;6128;59.340;18.040;2023-04-07T06:38:30;2.40;99.90
12130;DHT22;6128;59.340;18.040;2023-04-07T06:40:57;2.40;99.90
12130;DHT22;6128;59.340;18.040;2023-04-07T06:43:24;2.40;99.90
12130;DHT22;6128;59.340;18.040;2023-04-07T06:45:52;2.40;99.90
12130;DHT22;6128;59.340;18.040;2023-04-07T06:48:19;2.40;99.90
12130;DHT22;6128;59.340;18.040;2023-04-07T06:50:48;2.50;99.90
12130;DHT22;6128;59.340;18.040;2023-04-07T06:53:16;2.40;99.90
12130;DHT22;6128;59.340;18.040;2023-04-07T06:55:43;2.40;99.90
12130;DHT22;6128;59.340;18.040;2023-04-07T06:58:10;2.40;99.90
12130;DHT22;6128;59.340;18.040;2023-04-07T07:00:38;2.30;99.90
12130;DHT22;6128;59.340;18.040;2023-04-07T07:03:05;2.30;99.90
12130;DHT22;6128;59.340;18.040;2023-04-07T07:05:32;2.30;99.90
12130;DHT22;6128;59.340;18.040;2023-04-07T07:08:01;2.30;99.90
12130;DHT22;6128;59.340;18.040;2023-04-07T07:10:30;2.50;99.90
12130;DHT22;6128;59.340;18.040;2023-04-07T07:12:57;2.50;99.90
12130;DHT22;6128;59.340;18.040;2023-04-07T07:15:24;2.50;99.90
12130;DHT22;6128;59.340;18.040;2023-04-07T07:17:53;2.60;99.90
12130;DHT22;6128;59.340;18.040;2023-04-07T07:20:20;2.60;99.90
12130;DHT22;6128;59.340;18.040;2023-04-07T07:22:50;2.60;99.90
12130;DHT22;6128;59.340;18.040;2023-04-07T07:25:19;2.60;99.90
12130;DHT22;6128;59.340;18.040;2023-04-07T07:27:47;2.50;99.90
12130;DHT22;6128;59.340;18.040;2023-04-07T07:30:18;2.50;99.90
12130;DHT22;6128;59.340;18.040;2023-04-07T07:32:49;2.60;99.90
12130;DHT22;6128;59.340;18.040;2023-04-07T07:35:23;2.70;99.90
12130;DHT22;6128;59.340;18.040;2023-04-07T07:37:51;2.70;99.90
12130;DHT22;6128;59.340;18.040;2023-04-07T07:40:21;2.60;99.90
12130;DHT22;6128;59.340;18.040;2023-04-07T07:42:48;2.50;99.90
12130;DHT22;6128;59.340;18.040;2023-04-07T07:45:15;2.50;99.90
12130;DHT22;6128;59.340;18.040;2023-04-07T07:47:44;2.50;99.90
12130;DHT22;6128;59.340;18.040;2023-04-07T07:50:11;2.60;99.90
12130;DHT22;6128;59.340;18.040;2023-04-07T07:52:38;2.60;99.90
12130;DHT22;6128;59.340;18.040;2023-04-07T07:55:06;2.60;99.90
12130;DHT22;6128;59.340;18.040;2023-04-07T07:57:35;2.60;99.90
12130;DHT22;6128;59.340;18.040;2023-04-07T08:00:02;2.70;99.90
12130;DHT22;6128;59.340;18.040;2023-04-07T08:02:30;2.80;99.90
12130;DHT22;6128;59.340;18.040;2023-04-07T08:04:58;2.80;99.90
12130;DHT22;6128;59.340;18.040;2023-04-07T08:07:26;2.80;99.90
12130;DHT22;6128;59.340;18.040;2023-04-07T08:09:53;2.70;99.90
12130;DHT22;6128;59.340;18.040;2023-04-07T08:12:20;2.80;99.90
12130;DHT22;6128;59.340;18.040;2023-04-07T08:14:49;2.80;99.90
12130;DHT22;6128;59.340;18.040;2023-04-07T08:17:16;2.90;99.90
12130;DHT22;6128;59.340;18.040;2023-04-07T08:19:43;2.80;99.90
12130;DHT22;6128;59.340;18.040;2023-04-07T08:22:11;2.90;99.90
12130;DHT22;6128;59.340;18.040;2023-04-07T08:24:38;3.00;99.90
12130;DHT22;6128;59.340;18.040;2023-04-07T08:27:05;3.00;99.90
12130;DHT22;6128;59.340;18.040;2023-04-07T08:29:32;3.00;99.90
12130;DHT22;6128;59.340;18.040;2023-04-07T08:32:01;3.00;99.90
12130;DHT22;6128;59.340;18.040;2023-04-07T08:34:28;3.00;99.90
12130;DHT22;6128;59.340;18.040;2023-04-07T08:36:55;3.10;99.90
12130;DHT22;6128;59.340;18.040;2023-04-07T08:39:22;3.10;99.90
12130;DHT22;6128;59.340;18.040;2023-04-07T08:41:52;3.10;99.90
12130;DHT22;6128;59.340;18.040;2023-04-07T08:44:21;3.10;99.90
12130;DHT22;6128;59.340;18.040;2023-04-07T08:46:53;3.10;99.90
12130;DHT22;6128;59.340;18.040;2023-04-07T08:49:27;3.10;99.90
12130;DHT22;6128;59.340;18.040;2023-04-07T08:51:55;3.20;99.90
12130;DHT22;6128;59.340;18.040;2023-04-07T08:54:28;3.20;99.90
12130;DHT22;6128;59.340;18.040;2023-04-07T08:56:58;3.20;99.90
12130;DHT22;6128;59.340;18.040;2023-04-07T08:59:26;3.20;99.90
12130;DHT22;6128;59.340;18.040;2023-04-07T09:01:55;3.20;99.90
12130;DHT22;6128;59.340;18.040;2023-04-07T09:04:23;3.20;99.90
12130;DHT22;6128;59.340;18.040;2023-04-07T09:06:52;3.20;99.90
12130;DHT22;6128;59.340;18.040;2023-04-07T09:09:19;3.20;99.90
12130;DHT22;6128;59.340;18.040;2023-04-07T09:11:47;3.20;99.90
12130;DHT22;6128;59.340;18.040;2023-04-07T09:14:15;3.20;99.90
12130;DHT22;6128;59.340;18.040;2023-04-07T09:16:43;3.30;99.90
12130;DHT22;6128;59.340;18.040;2023-04-07T09:19:11;3.30;99.90
12130;DHT22;6128;59.340;18.040;2023-04-07T09:21:50;3.30;99.90
12130;DHT22;6128;59.340;18.040;2023-04-07T09:24:22;3.40;99.90
12130;DHT22;6128;59.340;18.040;2023-04-07T09:26:49;3.50;99.90
12130;DHT22;6128;59.340;18.040;2023-04-07T09:29:20;3.40;99.90
12130;DHT22;6128;59.340;18.040;2023-04-07T09:31:49;3.50;99.90
12130;DHT22;6128;59.340;18.040;2023-04-07T09:34:24;3.50;99.90
12130;DHT22;6128;59.340;18.040;2023-04-07T09:36:54;3.50;99.90
12130;DHT22;6128;59.340;18.040;2023-04-07T09:39:21;3.50;99.90
12130;DHT22;6128;59.340;18.040;2023-04-07T09:41:49;3.60;99.90
12130;DHT22;6128;59.340;18.040;2023-04-07T09:44:18;3.60;99.90
12130;DHT22;6128;59.340;18.040;2023-04-07T09:46:48;3.70;99.90
12130;DHT22;6128;59.340;18.040;2023-04-07T09:49:16;3.80;99.90
12130;DHT22;6128;59.340;18.040;2023-04-07T09:51:56;3.80;99.90
12130;DHT22;6128;59.340;18.040;2023-04-07T09:54:34;3.80;99.90
12130;DHT22;6128;59.340;18.040;2023-04-07T09:57:03;3.80;99.90
12130;DHT22;6128;59.340;18.040;2023-04-07T09:59:32;3.80;99.90
12130;DHT22;6128;59.340;18.040;2023-04-07T10:01:59;3.70;99.90
12130;DHT22;6128;59.340;18.040;2023-04-07T10:04:27;3.80;99.90
12130;DHT22;6128;59.340;18.040;2023-04-07T10:06:57;3.70;99.90
12130;DHT22;6128;59.340;18.040;2023-04-07T10:09:25;3.70;99.90
12130;DHT22;6128;59.340;18.040;2023-04-07T10:11:54;3.70;99.90
12130;DHT22;6128;59.340;18.040;2023-04-07T10:14:26;3.60;99.90
12130;DHT22;6128;59.340;18.040;2023-04-07T10:16:53;3.70;99.90
12130;DHT22;6128;59.340;18.040;2023-04-07T10:19:22;3.70;99.90
12130;DHT22;6128;59.340;18.040;2023-04-07T10:21:52;3.70;99.90
12130;DHT22;6128;59.340;18.040;2023-04-07T10:24:36;3.60;99.90
12130;DHT22;6128;59.340;18.040;2023-04-07T10:27:15;3.70;99.90
12130;DHT22;6128;59.340;18.040;2023-04-07T10:29:45;3.80;99.90
12130;DHT22;6128;59.340;18.040;2023-04-07T10:32:15;3.80;99.90
12130;DHT22;6128;59.340;18.040;2023-04-07T10:34:55;3.80;99.90
12130;DHT22;6128;59.340;18.040;2023-04-07T10:37:24;3.80;99.90
12130;DHT22;6128;59.340;18.040;2023-04-07T10:42:54;3.90;99.90
12130;DHT22;6128;59.340;18.040;2023-04-07T10:45:56;3.90;99.90
12130;DHT22;6128;59.340;18.040;2023-04-07T10:48:26;3.80;99.90
12130;DHT22;6128;59.340;18.040;2023-04-07T10:51:16;3.80;99.90
12130;DHT22;6128;59.340;18.040;2023-04-07T10:54:17;3.80;99.90
12130;DHT22;6128;59.340;18.040;2023-04-07T10:57:08;3.80;99.90
12130;DHT22;6128;59.340;18.040;2023-04-07T10:59:42;3.70;99.90
12130;DHT22;6128;59.340;18.040;2023-04-07T11:02:36;3.80;99.90
12130;DHT22;6128;59.340;18.040;2023-04-07T11:05:04;3.90;99.90
12130;DHT22;6128;59.340;18.040;2023-04-07T11:07:46;3.90;99.90
12130;DHT22;6128;59.340;18.040;2023-04-07T11:10:15;4.00;99.90
12130;DHT22;6128;59.340;18.040;2023-04-07T11:12:44;4.00;99.90
12130;DHT22;6128;59.340;18.040;2023-04-07T11:15:25;4.10;99.90
12130;DHT22;6128;59.340;18.040;2023-04-07T11:18:15;4.20;99.90
12130;DHT22;6128;59.340;18.040;2023-04-07T11:20:44;4.20;99.90
12130;DHT22;6128;59.340;18.040;2023-04-07T11:23:13;4.30;99.90
12130;DHT22;6128;59.340;18.040;2023-04-07T11:25:42;4.40;99.90
12130;DHT22;6128;59.340;18.040;2023-04-07T11:28:10;4.40;99.90
12130;DHT22;6128;59.340;18.040;2023-04-07T11:30:44;4.30;99.90
12130;DHT22;6128;59.340;18.040;2023-04-07T11:33:19;4.30;99.90
12130;DHT22;6128;59.340;18.040;2023-04-07T11:35:51;4.40;99.90
12130;DHT22;6128;59.340;18.040;2023-04-07T11:38:20;4.50;99.90
12130;DHT22;6128;59.340;18.040;2023-04-07T11:40:48;4.50;99.90
12130;DHT22;6128;59.340;18.040;2023-04-07T11:43:17;4.60;99.90
12130;DHT22;6128;59.340;18.040;2023-04-07T11:46:03;4.60;99.90
12130;DHT22;6128;59.340;18.040;2023-04-07T11:48:31;4.40;99.90
12130;DHT22;6128;59.340;18.040;2023-04-07T11:50:58;4.30;99.90
12130;DHT22;6128;59.340;18.040;2023-04-07T11:53:27;4.30;99.90
12130;DHT22;6128;59.340;18.040;2023-04-07T11:55:59;4.20;99.90
12130;DHT22;6128;59.340;18.040;2023-04-07T11:58:27;4.30;99.90
12130;DHT22;6128;59.340;18.040;2023-04-07T12:00:56;4.30;99.90
12130;DHT22;6128;59.340;18.040;2023-04-07T12:03:24;4.10;99.90
12130;DHT22;6128;59.340;18.040;2023-04-07T12:05:52;4.00;99.90
12130;DHT22;6128;59.340;18.040;2023-04-07T12:08:19;4.00;99.90
12130;DHT22;6128;59.340;18.040;2023-04-07T12:10:46;4.00;99.90
12130;DHT22;6128;59.340;18.040;2023-04-07T12:13:13;4.10;99.90
12130;DHT22;6128;59.340;18.040;2023-04-07T12:15:41;4.10;99.90
12130;DHT22;6128;59.340;18.040;2023-04-07T12:18:14;4.10;99.90
12130;DHT22;6128;59.340;18.040;2023-04-07T12:20:42;4.10;99.90
12130;DHT22;6128;59.340;18.040;2023-04-07T12:23:09;4.10;99.90
12130;DHT22;6128;59.340;18.040;2023-04-07T12:25:37;4.30;99.90
12130;DHT22;6128;59.340;18.040;2023-04-07T12:28:04;4.40;99.90
12130;DHT22;6128;59.340;18.040;2023-04-07T12:30:31;4.30;99.90
12130;DHT22;6128;59.340;18.040;2023-04-07T12:32:58;4.30;99.90
12130;DHT22;6128;59.340;18.040;2023-04-07T12:35:29;4.20;99.90
12130;DHT22;6128;59.340;18.040;2023-04-07T12:37:56;4.30;99.90
12130;DHT22;6128;59.340;18.040;2023-04-07T12:40:23;4.50;99.90
12130;DHT22;6128;59.340;18.040;2023-04-07T12:42:51;4.60;99.90
12130;DHT22;6128;59.340;18.040;2023-04-07T12:45:19;4.70;99.90
12130;DHT22;6128;59.340;18.040;2023-04-07T12:47:46;4.60;99.90
12130;DHT22;6128;59.340;18.040;2023-04-07T12:50:13;4.70;99.90
12130;DHT22;6128;59.340;18.040;2023-04-07T12:52:42;4.70;99.90
12130;DHT22;6128;59.340;18.040;2023-04-07T12:55:09;4.70;99.90
12130;DHT22;6128;59.340;18.040;2023-04-07T12:57:37;4.70;99.90
12130;DHT22;6128;59.340;18.040;2023-04-07T13:00:05;4.60;99.90
12130;DHT22;6128;59.340;18.040;2023-04-07T13:02:33;4.60;99.90
12130;DHT22;6128;59.340;18.040;2023-04-07T13:05:01;4.60;99.90
12130;DHT22;6128;59.340;18.040;2023-04-07T13:07:29;4.50;99.90
12130;DHT22;6128;59.340;18.040;2023-04-07T13:09:58;4.60;99.90
12130;DHT22;6128;59.340;18.040;2023-04-07T13:12:25;4.70;99.90
12130;DHT22;6128;59.340;18.040;2023-04-07T13:14:52;4.70;99.90
12130;DHT22;6128;59.340;18.040;2023-04-07T13:17:19;4.80;99.90
12130;DHT22;6128;59.340;18.040;2023-04-07T13:19:47;4.80;99.90
12130;DHT22;6128;59.340;18.040;2023-04-07T13:22:14;4.80;99.90
12130;DHT22;6128;59.340;18.040;2023-04-07T13:24:42;4.80;99.90
12130;DHT22;6128;59.340;18.040;2023-04-07T13:27:11;4.90;99.90
12130;DHT22;6128;59.340;18.040;2023-04-07T13:29:38;5.00;99.90
12130;DHT22;6128;59.340;18.040;2023-04-07T13:32:05;5.00;99.90
12130;DHT22;6128;59.340;18.040;2023-04-07T13:34:32;5.00;99.90
12130;DHT22;6128;59.340;18.040;2023-04-07T13:37:00;5.00;99.90
12130;DHT22;6128;59.340;18.040;2023-04-07T13:39:28;5.10;99.90
12130;DHT22;6128;59.340;18.040;2023-04-07T13:41:55;5.10;99.90
12130;DHT22;6128;59.340;18.040;2023-04-07T13:44:24;5.00;99.90
12130;DHT22;6128;59.340;18.040;2023-04-07T13:46:52;5.10;99.90
12130;DHT22;6128;59.340;18.040;2023-04-07T13:49:19;5.20;99.90
12130;DHT22;6128;59.340;18.040;2023-04-07T13:51:47;5.30;99.90
12130;DHT22;6128;59.340;18.040;2023-04-07T13:54:15;5.30;99.90
12130;DHT22;6128;59.340;18.040;2023-04-07T13:56:43;5.40;99.90
12130;DHT22;6128;59.340;18.040;2023-04-07T13:59:10;5.30;99.90
12130;DHT22;6128;59.340;18.040;2023-04-07T14:01:39;5.20;99.90
12130;DHT22;6128;59.340;18.040;2023-04-07T14:04:06;5.30;99.90
12130;DHT22;6128;59.340;18.040;2023-04-07T14:06:33;5.30;99.90
12130;DHT22;6128;59.340;18.040;2023-04-07T14:09:01;5.10;99.90
12130;DHT22;6128;59.340;18.040;2023-04-07T14:11:31;5.00;99.90
12130;DHT22;6128;59.340;18.040;2023-04-07T14:14:01;5.00;99.90
12130;DHT22;6128;59.340;18.040;2023-04-07T14:16:29;5.10;99.90
12130;DHT22;6128;59.340;18.040;2023-04-07T14:18:58;5.20;99.90
12130;DHT22;6128;59.340;18.040;2023-04-07T14:21:25;5.20;99.90
12130;DHT22;6128;59.340;18.040;2023-04-07T14:23:53;5.30;99.90
12130;DHT22;6128;59.340;18.040;2023-04-07T14:26:20;5.30;99.90
12130;DHT22;6128;59.340;18.040;2023-04-07T14:28:47;5.30;99.90
12130;DHT22;6128;59.340;18.040;2023-04-07T14:31:15;5.30;99.90
12130;DHT22;6128;59.340;18.040;2023-04-07T14:33:43;5.40;99.90
12130;DHT22;6128;59.340;18.040;2023-04-07T14:36:13;5.50;99.90
12130;DHT22;6128;59.340;18.040;2023-04-07T14:38:42;5.50;99.90
12130;DHT22;6128;59.340;18.040;2023-04-07T14:41:09;5.50;99.90
12130;DHT22;6128;59.340;18.040;2023-04-07T14:43:37;5.40;99.90
12130;DHT22;6128;59.340;18.040;2023-04-07T14:46:06;5.40;99.90
12130;DHT22;6128;59.340;18.040;2023-04-07T14:48:34;5.30;99.90
12130;DHT22;6128;59.340;18.040;2023-04-07T14:51:01;5.20;99.90
12130;DHT22;6128;59.340;18.040;2023-04-07T14:53:29;5.20;99.90
12130;DHT22;6128;59.340;18.040;2023-04-07T14:55:56;5.20;99.90
12130;DHT22;6128;59.340;18.040;2023-04-07T14:58:24;5.10;99.90
12130;DHT22;6128;59.340;18.040;2023-04-07T15:00:51;5.10;99.90
12130;DHT22;6128;59.340;18.040;2023-04-07T15:03:18;5.10;99.90
12130;DHT22;6128;59.340;18.040;2023-04-07T15:05:45;5.20;99.90
12130;DHT22;6128;59.340;18.040;2023-04-07T15:08:12;5.30;99.90
12130;DHT22;6128;59.340;18.040;2023-04-07T15:10:41;5.30;99.90
12130;DHT22;6128;59.340;18.040;2023-04-07T15:13:08;5.40;99.90
12130;DHT22;6128;59.340;18.040;2023-04-07T15:15:35;5.30;99.90
12130;DHT22;6128;59.340;18.040;2023-04-07T15:18:02;5.40;99.90
12130;DHT22;6128;59.340;18.040;2023-04-07T15:20:29;5.40;99.90
12130;DHT22;6128;59.340;18.040;2023-04-07T15:22:57;5.40;99.90
12130;DHT22;6128;59.340;18.040;2023-04-07T15:25:25;5.40;99.90
12130;DHT22;6128;59.340;18.040;2023-04-07T15:27:53;5.30;99.90
12130;DHT22;6128;59.340;18.040;2023-04-07T15:30:21;5.30;99.90
12130;DHT22;6128;59.340;18.040;2023-04-07T15:32:57;5.30;99.90
12130;DHT22;6128;59.340;18.040;2023-04-07T15:35:25;5.30;99.90
12130;DHT22;6128;59.340;18.040;2023-04-07T15:37:52;5.40;99.90
12130;DHT22;6128;59.340;18.040;2023-04-07T15:40:20;5.30;99.90
12130;DHT22;6128;59.340;18.040;2023-04-07T15:42:47;5.30;99.90
12130;DHT22;6128;59.340;18.040;2023-04-07T15:45:16;5.30;99.90
12130;DHT22;6128;59.340;18.040;2023-04-07T15:47:43;5.30;99.90
12130;DHT22;6128;59.340;18.040;2023-04-07T15:50:10;5.40;99.90
12130;DHT22;6128;59.340;18.040;2023-04-07T15:52:38;5.40;99.90
12130;DHT22;6128;59.340;18.040;2023-04-07T15:55:05;5.20;99.90
12130;DHT22;6128;59.340;18.040;2023-04-07T15:57:33;5.10;99.90
12130;DHT22;6128;59.340;18.040;2023-04-07T16:00:00;5.20;99.90